Terminal Aerodrome Forecast
Issued by NWS Cleveland, OH

Home | Current Version | Previous Version | Graphics & Text | Print | Product List | Glossary On
Versions: 1 2 3 4 5 6 7 8 9 10 11 12 13 14 15 16 17 18 19 20 21 22 23 24
000
FTUS41 KCLE 172000 AAA
TAFCLE
TAF AMD
KCLE 172054Z 1721/1824 36006KT P6SM BKN050
     FM180000 VRB03KT P6SM SKC
     FM181600 01008KT P6SM SCT040=

USA.gov is the U.S. government's official web portal to all federal, state and local government web resources and services.